createdAt,value
2023-05-17T00:00:31.133Z,102048.78
2023-05-17T00:02:57.831Z,102043.50
2023-05-17T00:05:24.667Z,102042.47
2023-05-17T00:07:51.638Z,102052.84
2023-05-17T00:10:18.421Z,102053.97
2023-05-17T00:12:45.188Z,102053.00
2023-05-17T00:15:11.931Z,102040.09
2023-05-17T00:17:38.865Z,102049.66
2023-05-17T00:20:06.593Z,102015.75
2023-05-17T00:22:33.331Z,102034.94
2023-05-17T00:25:00.025Z,102042.72
2023-05-17T00:27:26.716Z,102039.25
2023-05-17T00:29:53.476Z,102055.13
2023-05-17T00:32:20.257Z,102010.28
2023-05-17T00:34:47.029Z,102039.53
2023-05-17T00:37:13.732Z,102048.19
2023-05-17T00:39:40.428Z,102050.81
2023-05-17T00:42:07.226Z,102042.34
2023-05-17T00:44:34.013Z,102043.84
2023-05-17T00:47:00.786Z,102045.81
2023-05-17T00:49:27.694Z,102032.91
2023-05-17T00:51:55.156Z,102050.22
2023-05-17T00:54:22.894Z,102051.06
2023-05-17T00:56:50.166Z,102048.72
2023-05-17T00:59:17.715Z,102061.66
2023-05-17T01:01:45.368Z,102065.00
2023-05-17T01:04:12.236Z,102054.81
2023-05-17T01:06:39.208Z,102043.31
2023-05-17T01:09:06.504Z,102060.66
2023-05-17T01:11:57.220Z,102053.66
2023-05-17T01:14:31.629Z,102057.22
2023-05-17T01:17:04.781Z,102046.88
2023-05-17T01:19:49.759Z,102064.31
2023-05-17T01:23:00.975Z,102070.31
2023-05-17T01:25:53.013Z,102054.81
2023-05-17T01:28:23.188Z,102063.47
2023-05-17T01:30:51.860Z,102040.78
2023-05-17T01:33:21.660Z,102046.03
2023-05-17T01:35:48.461Z,102038.03
2023-05-17T01:38:15.115Z,102055.47
2023-05-17T01:40:52.557Z,102045.84
2023-05-17T01:43:31.614Z,102046.63
2023-05-17T01:46:14.895Z,102037.94
2023-05-17T01:48:49.693Z,102037.81
2023-05-17T01:51:20.272Z,102053.47
2023-05-17T01:53:53.513Z,102037.75
2023-05-17T01:56:21.423Z,102054.09
2023-05-17T01:58:49.158Z,102049.94
2023-05-17T02:01:18.347Z,102032.03
2023-05-17T02:03:54.149Z,102044.03
2023-05-17T02:06:20.950Z,102049.25
2023-05-17T02:08:47.634Z,102044.97
2023-05-17T02:11:14.361Z,102039.47
2023-05-17T02:13:41.192Z,102050.03
2023-05-17T02:16:07.886Z,102041.41
2023-05-17T02:18:35.847Z,102028.91
2023-05-17T02:21:02.799Z,102043.00
2023-05-17T02:23:29.525Z,102038.56
2023-05-17T02:25:56.194Z,102049.84
2023-05-17T02:28:22.931Z,102034.28
2023-05-17T02:30:49.632Z,102038.34
2023-05-17T02:33:16.406Z,102034.28
2023-05-17T02:35:43.189Z,102039.69
2023-05-17T02:38:09.929Z,102045.41
2023-05-17T02:40:36.590Z,102034.94
2023-05-17T02:43:03.363Z,102047.19
2023-05-17T02:45:30.784Z,102032.41
2023-05-17T02:47:57.545Z,102022.84
2023-05-17T02:50:24.286Z,102030.22
2023-05-17T02:52:51.102Z,102024.22
2023-05-17T02:55:18.037Z,102024.41
2023-05-17T02:57:44.824Z,102026.16
2023-05-17T03:00:11.879Z,102031.38
2023-05-17T03:02:38.730Z,102029.63
2023-05-17T03:05:05.819Z,102021.09
2023-05-17T03:07:32.511Z,102015.91
2023-05-17T03:09:59.194Z,101992.34
2023-05-17T03:12:26.889Z,102024.25
2023-05-17T03:14:55.017Z,102022.38
2023-05-17T03:17:21.676Z,102013.72
2023-05-17T03:19:48.445Z,102020.00
2023-05-17T03:22:15.162Z,102007.00
2023-05-17T03:24:41.861Z,102015.34
2023-05-17T03:27:08.614Z,102016.16
2023-05-17T03:29:35.334Z,102010.13
2023-05-17T03:32:03.337Z,102010.50
2023-05-17T03:34:30.040Z,102015.84
2023-05-17T03:36:56.711Z,102024.53
2023-05-17T03:39:23.485Z,102013.22
2023-05-17T03:41:51.093Z,102023.72
2023-05-17T03:44:17.832Z,102007.06
2023-05-17T03:46:44.706Z,102010.25
2023-05-17T03:49:11.828Z,101996.22
2023-05-17T03:51:38.574Z,101999.53
2023-05-17T03:54:05.286Z,102003.91
2023-05-17T03:56:32.618Z,101990.84
2023-05-17T03:58:59.377Z,102001.25
2023-05-17T04:01:26.120Z,102006.34
2023-05-17T04:03:52.910Z,102007.25
2023-05-17T04:06:19.624Z,101988.22
2023-05-17T04:08:46.334Z,102001.03
2023-05-17T04:11:16.080Z,102005.56
2023-05-17T04:13:43.004Z,102006.13
2023-05-17T04:16:10.331Z,102006.09
2023-05-17T04:18:38.403Z,102012.16
2023-05-17T04:21:06.264Z,101999.88
2023-05-17T04:23:34.307Z,102007.38
2023-05-17T04:26:01.032Z,101997.16
2023-05-17T04:28:27.931Z,101995.03
2023-05-17T04:30:56.207Z,101991.00
2023-05-17T04:33:24.597Z,101994.81
2023-05-17T04:35:54.963Z,101999.16
2023-05-17T04:38:21.848Z,101987.00
2023-05-17T04:40:48.622Z,101996.56
2023-05-17T04:43:15.604Z,102011.16
2023-05-17T04:45:42.310Z,102003.88
2023-05-17T04:48:09.071Z,102002.19
2023-05-17T04:50:36.044Z,102012.84
2023-05-17T04:53:02.799Z,102012.47
2023-05-17T04:55:29.707Z,102000.22
2023-05-17T04:57:56.645Z,102004.69
2023-05-17T05:00:24.037Z,102005.41
2023-05-17T05:02:50.749Z,102008.03
2023-05-17T05:05:17.819Z,102011.59
2023-05-17T05:07:44.484Z,102014.78
2023-05-17T05:10:11.175Z,102004.50
2023-05-17T05:12:38.209Z,101996.91
2023-05-17T05:15:05.332Z,102016.75
2023-05-17T05:17:32.222Z,102008.63
2023-05-17T05:19:59.392Z,102021.59
2023-05-17T05:22:26.225Z,102024.84
2023-05-17T05:24:52.981Z,102024.03
2023-05-17T05:27:19.703Z,102027.53
2023-05-17T05:29:46.565Z,102034.56
2023-05-17T05:32:13.371Z,102029.25
2023-05-17T05:34:40.096Z,102033.41
2023-05-17T05:37:06.753Z,102012.56
2023-05-17T05:39:33.631Z,102049.88
2023-05-17T05:42:00.709Z,102043.00
2023-05-17T05:44:27.469Z,102028.06
2023-05-17T05:46:54.217Z,102045.41
2023-05-17T05:49:20.979Z,102040.31
2023-05-17T05:51:47.754Z,102039.31
2023-05-17T05:54:14.511Z,102039.78
2023-05-17T05:56:41.327Z,102032.06
2023-05-17T05:59:08.002Z,102047.66
2023-05-17T06:01:34.894Z,102041.50
2023-05-17T06:04:01.615Z,102035.44
2023-05-17T06:06:28.388Z,102038.91
2023-05-17T06:08:58.119Z,102048.66
2023-05-17T06:11:26.340Z,102049.91
2023-05-17T06:13:53.317Z,102039.66
2023-05-17T06:16:20.010Z,102042.56
2023-05-17T06:18:48.744Z,102050.06
2023-05-17T06:21:18.696Z,102043.81
2023-05-17T06:23:45.608Z,102049.47
2023-05-17T06:26:12.340Z,102020.47
2023-05-17T06:28:39.257Z,102054.41
2023-05-17T06:31:05.989Z,102033.41
2023-05-17T06:33:32.917Z,102055.31
2023-05-17T06:38:29.988Z,102039.88
2023-05-17T06:40:58.629Z,102041.13
2023-05-17T06:43:25.322Z,102031.66
2023-05-17T06:45:52.002Z,102035.16
2023-05-17T06:48:18.871Z,102033.50
2023-05-17T06:50:45.772Z,102016.97
2023-05-17T06:53:12.464Z,102027.16
2023-05-17T06:55:42.245Z,102038.41
2023-05-17T06:58:12.031Z,102028.97
2023-05-17T07:00:38.834Z,102033.91
2023-05-17T07:03:05.966Z,102047.38
2023-05-17T07:05:33.314Z,102047.31
2023-05-17T07:08:00.289Z,102049.03
2023-05-17T07:10:27.033Z,102035.22
2023-05-17T07:12:53.934Z,102039.22
2023-05-17T07:15:20.737Z,102031.31
2023-05-17T07:17:47.620Z,102027.09
2023-05-17T07:20:15.053Z,102018.75
2023-05-17T07:22:41.875Z,102018.00
2023-05-17T07:25:09.149Z,102018.00
2023-05-17T07:27:36.037Z,102028.19
2023-05-17T07:30:03.609Z,102022.81
2023-05-17T07:32:30.374Z,102022.28
2023-05-17T07:34:57.121Z,102011.53
2023-05-17T07:37:23.882Z,102031.81
2023-05-17T07:39:50.807Z,102003.38
2023-05-17T07:42:18.083Z,102030.34
2023-05-17T07:44:44.766Z,102031.19
2023-05-17T07:47:11.588Z,102035.94
2023-05-17T07:49:38.363Z,102015.16
2023-05-17T07:52:05.407Z,102018.19
2023-05-17T07:54:32.190Z,102022.88
2023-05-17T07:56:59.793Z,102017.44
2023-05-17T07:59:26.605Z,102012.31
2023-05-17T08:01:54.239Z,102033.78
2023-05-17T08:04:21.134Z,102019.22
2023-05-17T08:06:48.615Z,102025.25
2023-05-17T08:09:20.030Z,102025.06
2023-05-17T08:11:47.068Z,102021.28
2023-05-17T08:14:17.264Z,102032.16
2023-05-17T08:16:46.183Z,102023.56
2023-05-17T08:19:15.127Z,102020.72
2023-05-17T08:21:42.772Z,102028.22
2023-05-17T08:24:12.838Z,102031.22
2023-05-17T08:26:39.701Z,102021.53
2023-05-17T08:29:06.594Z,102019.31
2023-05-17T08:31:33.416Z,102012.69
2023-05-17T08:34:00.589Z,102009.69
2023-05-17T08:36:28.566Z,102019.97
2023-05-17T08:38:55.565Z,102010.03
2023-05-17T08:41:22.962Z,102020.06
2023-05-17T08:43:51.097Z,102022.72
2023-05-17T08:46:21.889Z,102027.31
2023-05-17T08:48:53.656Z,102019.41
2023-05-17T08:51:21.988Z,102009.50
2023-05-17T08:53:50.537Z,102012.00
2023-05-17T08:56:21.552Z,102021.44
2023-05-17T08:58:57.107Z,102008.25
2023-05-17T09:01:26.625Z,102017.91
2023-05-17T09:03:54.543Z,102016.34
2023-05-17T09:06:22.422Z,102029.09
2023-05-17T09:08:54.814Z,102007.53
2023-05-17T09:11:32.211Z,102009.88
2023-05-17T09:14:00.272Z,102006.47
2023-05-17T09:16:31.430Z,101995.59
2023-05-17T09:18:59.339Z,102004.47
2023-05-17T09:21:27.704Z,102011.59
2023-05-17T09:24:05.369Z,102005.78
2023-05-17T09:26:44.819Z,102002.16
2023-05-17T09:29:13.313Z,101999.19
2023-05-17T09:31:41.197Z,101992.31
2023-05-17T09:34:08.907Z,102000.38
2023-05-17T09:36:37.447Z,101993.03
2023-05-17T09:39:06.619Z,101993.22
2023-05-17T09:41:42.241Z,101983.47
2023-05-17T09:44:10.228Z,101980.09
2023-05-17T09:46:41.782Z,101971.09
2023-05-17T09:49:09.509Z,101975.91
2023-05-17T09:51:41.707Z,101979.97
2023-05-17T09:54:10.119Z,101979.81
2023-05-17T09:56:37.681Z,101965.03
2023-05-17T09:59:10.691Z,101970.59
2023-05-17T10:01:40.535Z,101976.25
2023-05-17T10:04:10.715Z,101966.78
2023-05-17T10:09:13.576Z,101956.31
2023-05-17T10:11:43.175Z,101961.91
2023-05-17T10:14:23.296Z,101965.38
2023-05-17T10:16:51.417Z,101953.56
2023-05-17T10:19:21.171Z,101968.44
2023-05-17T10:21:50.204Z,101965.66
2023-05-17T10:24:17.677Z,101977.16
2023-05-17T10:26:45.058Z,101968.50
2023-05-17T10:29:11.989Z,101973.66
2023-05-17T10:31:42.430Z,101974.47
2023-05-17T10:34:11.991Z,101968.13
2023-05-17T10:36:40.717Z,101967.06
2023-05-17T10:39:10.210Z,101957.78
2023-05-17T10:41:41.819Z,101959.59
2023-05-17T10:44:12.361Z,101962.78
2023-05-17T10:46:39.351Z,101956.19
2023-05-17T10:49:06.354Z,101957.75
2023-05-17T10:51:37.716Z,101962.25
2023-05-17T10:54:18.683Z,101964.00
2023-05-17T10:56:50.585Z,101954.31
2023-05-17T10:59:29.609Z,101960.56
2023-05-17T11:02:06.250Z,101951.03
2023-05-17T11:04:39.939Z,101951.88
2023-05-17T11:07:29.642Z,101959.09
2023-05-17T11:10:06.200Z,101949.91
2023-05-17T11:12:43.005Z,101945.56
2023-05-17T11:15:14.791Z,101930.06
2023-05-17T11:17:44.766Z,101940.09
2023-05-17T11:20:27.054Z,101944.41
2023-05-17T11:23:01.033Z,101942.50
2023-05-17T11:25:36.448Z,101944.16
2023-05-17T11:28:22.406Z,101944.66
2023-05-17T11:30:53.842Z,101929.25
2023-05-17T11:33:33.088Z,101944.28
2023-05-17T11:36:13.526Z,101935.13
2023-05-17T11:38:40.189Z,101930.50
2023-05-17T11:43:52.317Z,101932.50
2023-05-17T11:46:21.555Z,101936.59
2023-05-17T11:48:51.280Z,101927.28
2023-05-17T11:51:21.241Z,101910.63
2023-05-17T11:53:50.102Z,101910.44
2023-05-17T11:56:17.376Z,101920.31
2023-05-17T11:58:44.655Z,101907.59
2023-05-17T12:01:11.450Z,101909.78
2023-05-17T12:03:38.160Z,101919.03
2023-05-17T12:06:17.656Z,101903.56
2023-05-17T12:08:45.934Z,101896.22
2023-05-17T12:11:15.203Z,101892.13
2023-05-17T12:13:42.848Z,101907.16
2023-05-17T12:16:18.119Z,101896.78
2023-05-17T12:18:50.686Z,101897.06
2023-05-17T12:21:19.253Z,101903.13
2023-05-17T12:23:49.551Z,101893.78
2023-05-17T12:26:19.516Z,101896.22
2023-05-17T12:28:53.509Z,101900.41
2023-05-17T12:31:24.470Z,101896.78
2023-05-17T12:33:51.538Z,101887.03
2023-05-17T12:36:19.421Z,101902.31
2023-05-17T12:38:47.325Z,101899.66
2023-05-17T12:41:15.846Z,101903.47
2023-05-17T12:43:45.150Z,101895.34
2023-05-17T12:46:19.570Z,101899.00
2023-05-17T12:48:47.847Z,101885.34
2023-05-17T12:51:17.183Z,101875.94
2023-05-17T12:53:44.879Z,101890.53
2023-05-17T12:56:17.359Z,101882.97
2023-05-17T12:58:45.013Z,101889.75
2023-05-17T13:01:14.604Z,101894.28
2023-05-17T13:03:41.920Z,101903.06
2023-05-17T13:06:10.375Z,101879.81
2023-05-17T13:08:37.626Z,101869.78
2023-05-17T13:11:14.912Z,101882.22
2023-05-17T13:13:41.769Z,101886.03
2023-05-17T13:16:08.497Z,101882.91
2023-05-17T13:18:55.890Z,101878.97
2023-05-17T13:21:24.684Z,101889.50
2023-05-17T13:23:51.768Z,101881.06
2023-05-17T13:26:18.993Z,101878.63
2023-05-17T13:28:46.528Z,101884.56
2023-05-17T13:31:13.367Z,101871.06
2023-05-17T13:33:40.248Z,101875.53
2023-05-17T13:36:07.169Z,101858.81
2023-05-17T13:38:33.844Z,101864.22
2023-05-17T13:41:00.612Z,101845.25
2023-05-17T13:43:27.341Z,101857.56
2023-05-17T13:45:57.013Z,101851.41
2023-05-17T13:48:24.132Z,101846.53
2023-05-17T13:50:51.158Z,101845.19
2023-05-17T13:53:18.387Z,101831.63
2023-05-17T13:55:45.390Z,101837.38
2023-05-17T13:58:13.079Z,101850.88
2023-05-17T14:00:42.834Z,101824.34
2023-05-17T14:03:09.783Z,101813.09
2023-05-17T14:05:36.848Z,101817.72
2023-05-17T14:08:03.704Z,101796.88
2023-05-17T14:10:31.107Z,101808.91
2023-05-17T14:12:57.957Z,101816.16
2023-05-17T14:15:24.750Z,101812.00
2023-05-17T14:17:51.660Z,101809.84
2023-05-17T14:20:18.677Z,101810.09
2023-05-17T14:22:46.340Z,101789.13
2023-05-17T14:25:13.034Z,101805.31
2023-05-17T14:27:39.728Z,101800.03
2023-05-17T14:30:06.976Z,101795.84
2023-05-17T14:32:35.499Z,101796.88
2023-05-17T14:35:02.284Z,101785.34
2023-05-17T14:37:28.986Z,101789.19
2023-05-17T14:40:06.004Z,101779.28
2023-05-17T14:42:33.687Z,101777.53
2023-05-17T14:45:00.764Z,101786.09
2023-05-17T14:47:27.504Z,101780.72
2023-05-17T14:49:54.197Z,101785.22
2023-05-17T14:52:20.978Z,101784.03
2023-05-17T14:54:47.705Z,101782.56
2023-05-17T14:57:14.407Z,101783.44
2023-05-17T14:59:43.184Z,101771.97
2023-05-17T15:02:11.751Z,101774.97
2023-05-17T15:04:38.595Z,101765.91
2023-05-17T15:07:06.157Z,101768.47
2023-05-17T15:09:38.146Z,101767.66
2023-05-17T15:12:05.283Z,101773.91
2023-05-17T15:14:31.939Z,101768.25
2023-05-17T15:16:58.662Z,101762.59
2023-05-17T15:19:25.444Z,101770.56
2023-05-17T15:21:52.515Z,101755.00
2023-05-17T15:24:19.280Z,101750.97
2023-05-17T15:26:46.016Z,101764.66
2023-05-17T15:29:12.703Z,101742.06
2023-05-17T15:31:39.391Z,101752.69
2023-05-17T15:34:06.561Z,101753.41
2023-05-17T15:36:34.596Z,101747.81
2023-05-17T15:39:01.313Z,101733.19
2023-05-17T15:41:30.122Z,101724.03
2023-05-17T15:43:57.624Z,101734.19
2023-05-17T15:46:24.412Z,101736.78
2023-05-17T15:48:51.102Z,101730.69
2023-05-17T15:51:17.939Z,101735.66
2023-05-17T15:53:44.651Z,101728.56
2023-05-17T15:56:11.659Z,101722.97
2023-05-17T15:58:38.412Z,101724.19
2023-05-17T16:01:06.295Z,101714.50
2023-05-17T16:03:33.833Z,101714.00
2023-05-17T16:06:00.982Z,101738.28
2023-05-17T16:08:27.676Z,101720.84
2023-05-17T16:10:54.332Z,101726.06
2023-05-17T16:13:21.168Z,101724.53
2023-05-17T16:15:48.202Z,101706.38
2023-05-17T16:18:15.336Z,101716.91
2023-05-17T16:20:42.616Z,101689.34
2023-05-17T16:23:09.829Z,101728.97
2023-05-17T16:25:36.700Z,101725.88
2023-05-17T16:28:03.535Z,101726.00
2023-05-17T16:30:30.287Z,101727.38
2023-05-17T16:32:57.034Z,101730.78
2023-05-17T16:35:23.759Z,101728.59
2023-05-17T16:37:50.503Z,101734.09
2023-05-17T16:40:17.308Z,101737.97
2023-05-17T16:42:44.706Z,101734.16
2023-05-17T16:45:12.062Z,101747.25
2023-05-17T16:47:38.968Z,101741.22
2023-05-17T16:50:07.174Z,101751.13
2023-05-17T16:52:35.229Z,101750.03
2023-05-17T16:55:03.729Z,101755.97
2023-05-17T16:57:32.528Z,101758.63
2023-05-17T17:00:01.220Z,101752.56
2023-05-17T17:02:28.553Z,101755.25
2023-05-17T17:04:55.841Z,101744.38
2023-05-17T17:07:22.565Z,101748.38
2023-05-17T17:09:49.306Z,101746.69
2023-05-17T17:12:24.053Z,101762.44
2023-05-17T17:14:53.115Z,101757.16
2023-05-17T17:17:19.845Z,101764.50
2023-05-17T17:19:46.608Z,101757.06
2023-05-17T17:22:14.752Z,101763.28
2023-05-17T17:24:42.793Z,101776.88
2023-05-17T17:27:09.441Z,101765.78
2023-05-17T17:29:36.379Z,101774.56
2023-05-17T17:32:03.148Z,101781.09
2023-05-17T17:34:29.936Z,101784.59
2023-05-17T17:36:58.145Z,101762.53
2023-05-17T17:39:25.024Z,101778.44
2023-05-17T17:41:51.758Z,101774.25
2023-05-17T17:44:19.482Z,101789.34
2023-05-17T17:46:46.211Z,101779.06
2023-05-17T17:49:12.932Z,101775.16
2023-05-17T17:51:39.612Z,101782.97
2023-05-17T17:54:07.474Z,101796.00
2023-05-17T17:56:34.548Z,101794.09
2023-05-17T17:59:01.350Z,101792.47
2023-05-17T18:01:29.702Z,101787.97
2023-05-17T18:03:56.430Z,101796.59
2023-05-17T18:06:23.764Z,101787.75
2023-05-17T18:08:50.551Z,101795.44
2023-05-17T18:11:17.524Z,101795.09
2023-05-17T18:13:44.397Z,101785.16
2023-05-17T18:16:11.182Z,101793.84
2023-05-17T18:18:40.758Z,101789.72
2023-05-17T18:21:08.805Z,101798.53
2023-05-17T18:23:36.022Z,101785.66
2023-05-17T18:26:03.487Z,101797.44
2023-05-17T18:28:41.132Z,101794.56
2023-05-17T18:31:08.855Z,101799.25
2023-05-17T18:33:35.746Z,101798.66
2023-05-17T18:36:02.772Z,101818.41
2023-05-17T18:38:29.765Z,101819.81
2023-05-17T18:40:56.608Z,101822.06
2023-05-17T18:43:23.483Z,101812.09
2023-05-17T18:45:51.431Z,101823.97
2023-05-17T18:48:18.967Z,101832.03
2023-05-17T18:50:45.845Z,101825.59
2023-05-17T18:53:13.153Z,101826.16
2023-05-17T18:55:40.927Z,101822.38
2023-05-17T18:58:08.673Z,101820.84
2023-05-17T19:00:36.126Z,101818.00
2023-05-17T19:03:04.850Z,101823.00
2023-05-17T19:05:32.347Z,101814.00
2023-05-17T19:07:59.519Z,101822.75
2023-05-17T19:10:26.569Z,101818.19
2023-05-17T19:12:53.837Z,101821.13
2023-05-17T19:15:21.055Z,101821.81
2023-05-17T19:17:47.890Z,101829.97
2023-05-17T19:20:14.676Z,101817.88
2023-05-17T19:22:41.408Z,101821.72
2023-05-17T19:25:09.292Z,101825.41
2023-05-17T19:27:36.712Z,101818.88
2023-05-17T19:30:03.887Z,101829.38
2023-05-17T19:32:33.358Z,101818.44
2023-05-17T19:35:01.664Z,101811.63
2023-05-17T19:37:29.498Z,101823.06
2023-05-17T19:39:56.477Z,101820.94
2023-05-17T19:42:23.172Z,101817.03
2023-05-17T19:44:49.859Z,101817.66
2023-05-17T19:47:17.164Z,101826.16
2023-05-17T19:49:43.877Z,101819.53
2023-05-17T19:52:10.554Z,101805.47
2023-05-17T19:54:37.282Z,101820.41
2023-05-17T19:57:04.208Z,101812.50
2023-05-17T19:59:30.981Z,101814.50
2023-05-17T20:01:58.729Z,101823.31
2023-05-17T20:04:25.800Z,101825.44
2023-05-17T20:06:52.507Z,101806.31
2023-05-17T20:09:19.265Z,101823.66
2023-05-17T20:11:46.029Z,101822.13
2023-05-17T20:14:13.376Z,101831.38
2023-05-17T20:16:40.961Z,101819.56
2023-05-17T20:19:08.455Z,101823.59
2023-05-17T20:21:36.668Z,101811.28
2023-05-17T20:24:07.124Z,101825.22
2023-05-17T20:26:38.024Z,101825.75
2023-05-17T20:29:07.796Z,101818.38
2023-05-17T20:31:36.720Z,101825.81
2023-05-17T20:34:05.064Z,101826.53
2023-05-17T20:36:32.169Z,101827.63
2023-05-17T20:38:59.526Z,101832.16
2023-05-17T20:41:26.793Z,101800.09
2023-05-17T20:43:54.015Z,101810.91
2023-05-17T20:46:21.036Z,101819.06
2023-05-17T20:48:48.728Z,101812.31
2023-05-17T20:51:17.997Z,101799.09
2023-05-17T20:53:46.817Z,101800.63
2023-05-17T20:56:19.674Z,101814.09
2023-05-17T20:58:47.964Z,101807.31
2023-05-17T21:01:14.939Z,101812.00
2023-05-17T21:03:43.378Z,101803.09
2023-05-17T21:06:10.898Z,101805.03
2023-05-17T21:08:38.542Z,101809.84
2023-05-17T21:11:05.929Z,101812.50
2023-05-17T21:13:32.814Z,101791.63
2023-05-17T21:15:59.746Z,101807.81
2023-05-17T21:18:26.606Z,101803.63
2023-05-17T21:20:53.457Z,101803.56
2023-05-17T21:23:20.333Z,101793.88
2023-05-17T21:25:47.627Z,101788.63
2023-05-17T21:28:14.381Z,101797.22
2023-05-17T21:30:41.143Z,101807.66
2023-05-17T21:33:07.967Z,101796.75
2023-05-17T21:35:34.725Z,101800.97
2023-05-17T21:38:01.455Z,101788.28
2023-05-17T21:40:28.440Z,101797.97
2023-05-17T21:42:55.520Z,101795.88
2023-05-17T21:45:22.725Z,101796.31
2023-05-17T21:47:49.408Z,101794.91
2023-05-17T21:50:16.888Z,101796.63
2023-05-17T21:52:43.853Z,101797.97
2023-05-17T21:55:10.788Z,101790.94
2023-05-17T21:57:37.845Z,101782.88
2023-05-17T22:00:05.972Z,101780.09
2023-05-17T22:02:35.177Z,101790.31
2023-05-17T22:05:02.459Z,101774.44
2023-05-17T22:07:29.220Z,101779.78
2023-05-17T22:09:55.933Z,101784.47
2023-05-17T22:12:25.671Z,101754.38
2023-05-17T22:14:56.451Z,101779.41
2023-05-17T22:17:35.192Z,101772.53
2023-05-17T22:20:11.480Z,101775.66
2023-05-17T22:22:38.334Z,101791.34
2023-05-17T22:25:05.859Z,101775.94
2023-05-17T22:27:32.750Z,101780.19
2023-05-17T22:29:59.406Z,101776.25
2023-05-17T22:32:26.361Z,101781.09
2023-05-17T22:34:53.155Z,101741.66
2023-05-17T22:37:22.798Z,101782.38
2023-05-17T22:39:49.882Z,101765.34
2023-05-17T22:42:16.615Z,101763.47
2023-05-17T22:44:43.334Z,101766.94
2023-05-17T22:47:14.837Z,101769.75
2023-05-17T22:49:42.288Z,101774.13
2023-05-17T22:52:18.603Z,101775.97
2023-05-17T22:54:45.410Z,101775.72
2023-05-17T22:57:12.112Z,101776.00
2023-05-17T22:59:39.408Z,101772.00
2023-05-17T23:02:06.091Z,101775.63
2023-05-17T23:04:33.063Z,101778.09
2023-05-17T23:07:02.629Z,101780.47
2023-05-17T23:09:40.636Z,101782.03
2023-05-17T23:12:08.997Z,101786.34
2023-05-17T23:14:37.037Z,101779.34
2023-05-17T23:17:04.760Z,101769.84
2023-05-17T23:19:32.992Z,101757.66
2023-05-17T23:22:03.263Z,101770.50
2023-05-17T23:24:30.295Z,101773.34
2023-05-17T23:26:57.760Z,101768.88
2023-05-17T23:29:25.961Z,101769.84
2023-05-17T23:31:53.612Z,101775.56
2023-05-17T23:34:21.061Z,101774.13
2023-05-17T23:36:47.915Z,101773.50
2023-05-17T23:39:14.574Z,101776.28
2023-05-17T23:41:42.310Z,101771.50
2023-05-17T23:44:09.137Z,101761.00
2023-05-17T23:46:36.526Z,101769.81
2023-05-17T23:49:04.616Z,101763.09
2023-05-17T23:51:34.740Z,101769.47
2023-05-17T23:54:01.778Z,101758.22
2023-05-17T23:56:28.568Z,101751.94
2023-05-17T23:58:55.522Z,101755.28
